sensor_id;sensor_type;location;lat;lon;timestamp;P1;durP1;ratioP1;P2;durP2;ratioP2
35971;SDS011;22052;0.000;0.000;2023-02-27T00:00:54;4.82;;;2.40;;
35971;SDS011;22052;0.000;0.000;2023-02-27T00:03:20;3.40;;;1.92;;
35971;SDS011;22052;0.000;0.000;2023-02-27T00:05:46;3.95;;;2.05;;
35971;SDS011;22052;0.000;0.000;2023-02-27T00:08:13;3.90;;;2.30;;
35971;SDS011;22052;0.000;0.000;2023-02-27T00:10:39;4.13;;;2.13;;
35971;SDS011;22052;0.000;0.000;2023-02-27T00:13:05;3.65;;;2.10;;
35971;SDS011;22052;0.000;0.000;2023-02-27T00:15:32;3.55;;;1.98;;
35971;SDS011;22052;0.000;0.000;2023-02-27T00:17:58;4.22;;;2.13;;
35971;SDS011;22052;0.000;0.000;2023-02-27T00:20:25;3.80;;;1.90;;
35971;SDS011;22052;0.000;0.000;2023-02-27T00:22:51;4.15;;;2.13;;
35971;SDS011;22052;0.000;0.000;2023-02-27T00:25:17;6.03;;;2.55;;
35971;SDS011;22052;0.000;0.000;2023-02-27T00:27:43;4.00;;;2.38;;
35971;SDS011;22052;0.000;0.000;2023-02-27T00:30:10;3.70;;;2.08;;
35971;SDS011;22052;0.000;0.000;2023-02-27T00:32:37;3.92;;;2.25;;
35971;SDS011;22052;0.000;0.000;2023-02-27T00:35:04;3.20;;;2.00;;
35971;SDS011;22052;0.000;0.000;2023-02-27T00:37:30;4.10;;;2.17;;
35971;SDS011;22052;0.000;0.000;2023-02-27T00:39:57;4.35;;;2.10;;
35971;SDS011;22052;0.000;0.000;2023-02-27T00:42:23;3.40;;;1.70;;
35971;SDS011;22052;0.000;0.000;2023-02-27T00:44:49;3.20;;;1.80;;
35971;SDS011;22052;0.000;0.000;2023-02-27T00:47:15;3.78;;;2.00;;
35971;SDS011;22052;0.000;0.000;2023-02-27T00:49:42;4.13;;;2.17;;
35971;SDS011;22052;0.000;0.000;2023-02-27T00:52:08;5.18;;;2.33;;
35971;SDS011;22052;0.000;0.000;2023-02-27T00:54:34;5.55;;;2.10;;
35971;SDS011;22052;0.000;0.000;2023-02-27T00:57:00;5.07;;;2.20;;
35971;SDS011;22052;0.000;0.000;2023-02-27T00:59:27;4.70;;;2.28;;
35971;SDS011;22052;0.000;0.000;2023-02-27T01:01:53;3.90;;;1.85;;
35971;SDS011;22052;0.000;0.000;2023-02-27T01:04:19;4.30;;;1.98;;
35971;SDS011;22052;0.000;0.000;2023-02-27T01:06:45;3.50;;;2.15;;
35971;SDS011;22052;0.000;0.000;2023-02-27T01:09:11;3.45;;;1.85;;
35971;SDS011;22052;0.000;0.000;2023-02-27T01:11:37;4.78;;;2.15;;
35971;SDS011;22052;0.000;0.000;2023-02-27T01:14:04;4.53;;;2.00;;
35971;SDS011;22052;0.000;0.000;2023-02-27T01:16:30;3.15;;;1.77;;
35971;SDS011;22052;0.000;0.000;2023-02-27T01:18:56;3.92;;;1.98;;
35971;SDS011;22052;0.000;0.000;2023-02-27T01:21:23;4.22;;;2.00;;
35971;SDS011;22052;0.000;0.000;2023-02-27T01:23:49;4.18;;;2.28;;
35971;SDS011;22052;0.000;0.000;2023-02-27T01:26:15;4.50;;;2.10;;
35971;SDS011;22052;0.000;0.000;2023-02-27T01:28:42;3.92;;;2.10;;
35971;SDS011;22052;0.000;0.000;2023-02-27T01:31:08;4.18;;;1.95;;
35971;SDS011;22052;0.000;0.000;2023-02-27T01:33:34;4.13;;;2.08;;
35971;SDS011;22052;0.000;0.000;2023-02-27T01:36:00;5.85;;;2.67;;
35971;SDS011;22052;0.000;0.000;2023-02-27T01:38:27;3.95;;;2.00;;
35971;SDS011;22052;0.000;0.000;2023-02-27T01:40:53;3.72;;;2.10;;
35971;SDS011;22052;0.000;0.000;2023-02-27T01:43:21;4.53;;;2.15;;
35971;SDS011;22052;0.000;0.000;2023-02-27T01:45:48;4.07;;;2.10;;
35971;SDS011;22052;0.000;0.000;2023-02-27T01:50:54;3.13;;;1.98;;
35971;SDS011;22052;0.000;0.000;2023-02-27T01:53:21;3.30;;;1.80;;
35971;SDS011;22052;0.000;0.000;2023-02-27T01:55:50;4.13;;;2.10;;
35971;SDS011;22052;0.000;0.000;2023-02-27T01:58:18;3.92;;;2.00;;
35971;SDS011;22052;0.000;0.000;2023-02-27T02:00:44;3.88;;;2.10;;
35971;SDS011;22052;0.000;0.000;2023-02-27T02:03:13;4.05;;;2.15;;
35971;SDS011;22052;0.000;0.000;2023-02-27T02:05:40;3.65;;;1.80;;
35971;SDS011;22052;0.000;0.000;2023-02-27T02:08:07;4.38;;;2.30;;
35971;SDS011;22052;0.000;0.000;2023-02-27T02:10:33;3.75;;;1.98;;
35971;SDS011;22052;0.000;0.000;2023-02-27T02:13:00;5.05;;;2.20;;
35971;SDS011;22052;0.000;0.000;2023-02-27T02:15:28;4.10;;;2.13;;
35971;SDS011;22052;0.000;0.000;2023-02-27T02:18:09;4.15;;;2.00;;
35971;SDS011;22052;0.000;0.000;2023-02-27T02:26:23;4.13;;;2.30;;
35971;SDS011;22052;0.000;0.000;2023-02-27T02:29:36;4.25;;;2.25;;
35971;SDS011;22052;0.000;0.000;2023-02-27T02:37:32;4.07;;;2.15;;
35971;SDS011;22052;0.000;0.000;2023-02-27T02:45:09;3.83;;;1.90;;
35971;SDS011;22052;0.000;0.000;2023-02-27T02:52:43;4.45;;;2.28;;
35971;SDS011;22052;0.000;0.000;2023-02-27T02:55:24;4.85;;;2.17;;
35971;SDS011;22052;0.000;0.000;2023-02-27T03:00:18;4.05;;;2.10;;
35971;SDS011;22052;0.000;0.000;2023-02-27T03:02:51;4.95;;;2.20;;
35971;SDS011;22052;0.000;0.000;2023-02-27T03:05:23;3.78;;;1.88;;
35971;SDS011;22052;0.000;0.000;2023-02-27T03:07:55;3.42;;;2.13;;
35971;SDS011;22052;0.000;0.000;2023-02-27T03:12:51;3.67;;;2.15;;
35971;SDS011;22052;0.000;0.000;2023-02-27T03:15:22;3.97;;;2.03;;
35971;SDS011;22052;0.000;0.000;2023-02-27T03:17:51;3.47;;;1.88;;
35971;SDS011;22052;0.000;0.000;2023-02-27T03:20:27;4.15;;;2.10;;
35971;SDS011;22052;0.000;0.000;2023-02-27T03:22:55;4.32;;;2.03;;
35971;SDS011;22052;0.000;0.000;2023-02-27T03:25:23;4.35;;;2.03;;
35971;SDS011;22052;0.000;0.000;2023-02-27T03:27:55;4.40;;;2.05;;
35971;SDS011;22052;0.000;0.000;2023-02-27T03:30:27;3.58;;;1.73;;
35971;SDS011;22052;0.000;0.000;2023-02-27T03:35:22;4.55;;;1.98;;
35971;SDS011;22052;0.000;0.000;2023-02-27T03:40:35;3.30;;;1.80;;
35971;SDS011;22052;0.000;0.000;2023-02-27T03:45:33;3.80;;;2.20;;
35971;SDS011;22052;0.000;0.000;2023-02-27T03:48:01;4.15;;;2.13;;
35971;SDS011;22052;0.000;0.000;2023-02-27T03:50:28;3.65;;;2.03;;
35971;SDS011;22052;0.000;0.000;2023-02-27T03:52:55;3.45;;;1.75;;
35971;SDS011;22052;0.000;0.000;2023-02-27T03:55:23;3.97;;;1.80;;
35971;SDS011;22052;0.000;0.000;2023-02-27T03:57:50;4.18;;;1.98;;
35971;SDS011;22052;0.000;0.000;2023-02-27T04:00:18;3.90;;;2.17;;
35971;SDS011;22052;0.000;0.000;2023-02-27T04:02:45;3.50;;;1.77;;
35971;SDS011;22052;0.000;0.000;2023-02-27T04:05:12;4.07;;;1.92;;
35971;SDS011;22052;0.000;0.000;2023-02-27T04:10:30;3.47;;;1.88;;
35971;SDS011;22052;0.000;0.000;2023-02-27T04:20:36;3.35;;;1.77;;
35971;SDS011;22052;0.000;0.000;2023-02-27T04:23:05;3.40;;;1.90;;
35971;SDS011;22052;0.000;0.000;2023-02-27T04:33:08;3.85;;;1.70;;
35971;SDS011;22052;0.000;0.000;2023-02-27T04:35:37;4.82;;;2.17;;
35971;SDS011;22052;0.000;0.000;2023-02-27T04:38:27;3.92;;;2.10;;
35971;SDS011;22052;0.000;0.000;2023-02-27T04:40:53;4.00;;;2.17;;
35971;SDS011;22052;0.000;0.000;2023-02-27T04:43:21;4.63;;;2.20;;
35971;SDS011;22052;0.000;0.000;2023-02-27T04:45:48;5.03;;;2.40;;
35971;SDS011;22052;0.000;0.000;2023-02-27T04:48:19;4.95;;;1.83;;
35971;SDS011;22052;0.000;0.000;2023-02-27T04:50:48;6.40;;;2.25;;
35971;SDS011;22052;0.000;0.000;2023-02-27T04:53:21;4.20;;;2.25;;
35971;SDS011;22052;0.000;0.000;2023-02-27T04:56:08;6.82;;;2.20;;
35971;SDS011;22052;0.000;0.000;2023-02-27T04:58:36;5.40;;;2.47;;
35971;SDS011;22052;0.000;0.000;2023-02-27T05:03:40;4.78;;;2.13;;
35971;SDS011;22052;0.000;0.000;2023-02-27T05:06:08;5.70;;;2.50;;
35971;SDS011;22052;0.000;0.000;2023-02-27T05:08:42;4.65;;;2.50;;
35971;SDS011;22052;0.000;0.000;2023-02-27T05:11:27;3.88;;;2.30;;
35971;SDS011;22052;0.000;0.000;2023-02-27T05:14:07;6.45;;;2.08;;
35971;SDS011;22052;0.000;0.000;2023-02-27T05:16:37;7.38;;;2.15;;
35971;SDS011;22052;0.000;0.000;2023-02-27T05:19:06;6.13;;;2.08;;
35971;SDS011;22052;0.000;0.000;2023-02-27T05:21:34;5.85;;;2.17;;
35971;SDS011;22052;0.000;0.000;2023-02-27T05:24:17;11.32;;;2.50;;
35971;SDS011;22052;0.000;0.000;2023-02-27T05:29:17;5.70;;;2.08;;
35971;SDS011;22052;0.000;0.000;2023-02-27T05:32:48;7.60;;;2.17;;
35971;SDS011;22052;0.000;0.000;2023-02-27T05:35:01;5.70;;;2.33;;
35971;SDS011;22052;0.000;0.000;2023-02-27T05:37:30;5.90;;;2.20;;
35971;SDS011;22052;0.000;0.000;2023-02-27T05:39:57;10.77;;;2.60;;
35971;SDS011;22052;0.000;0.000;2023-02-27T05:42:27;5.28;;;2.15;;
35971;SDS011;22052;0.000;0.000;2023-02-27T05:45:06;5.22;;;2.38;;
35971;SDS011;22052;0.000;0.000;2023-02-27T05:47:35;4.90;;;2.20;;
35971;SDS011;22052;0.000;0.000;2023-02-27T05:50:07;5.65;;;2.25;;
35971;SDS011;22052;0.000;0.000;2023-02-27T05:52:35;6.77;;;2.00;;
35971;SDS011;22052;0.000;0.000;2023-02-27T05:55:06;6.93;;;2.40;;
35971;SDS011;22052;0.000;0.000;2023-02-27T05:57:46;6.78;;;2.50;;
35971;SDS011;22052;0.000;0.000;2023-02-27T06:00:15;8.15;;;2.50;;
35971;SDS011;22052;0.000;0.000;2023-02-27T06:02:42;11.88;;;2.85;;
35971;SDS011;22052;0.000;0.000;2023-02-27T06:05:10;8.18;;;2.30;;
35971;SDS011;22052;0.000;0.000;2023-02-27T06:07:38;6.97;;;2.28;;
35971;SDS011;22052;0.000;0.000;2023-02-27T06:10:04;6.65;;;2.58;;
35971;SDS011;22052;0.000;0.000;2023-02-27T06:12:31;7.93;;;2.42;;
35971;SDS011;22052;0.000;0.000;2023-02-27T06:14:57;7.75;;;1.92;;
35971;SDS011;22052;0.000;0.000;2023-02-27T06:17:24;8.50;;;2.55;;
35971;SDS011;22052;0.000;0.000;2023-02-27T06:19:50;7.15;;;2.33;;
35971;SDS011;22052;0.000;0.000;2023-02-27T06:22:16;6.88;;;2.28;;
35971;SDS011;22052;0.000;0.000;2023-02-27T06:24:42;5.32;;;2.08;;
35971;SDS011;22052;0.000;0.000;2023-02-27T06:27:08;5.95;;;2.10;;
35971;SDS011;22052;0.000;0.000;2023-02-27T06:29:34;9.02;;;2.38;;
35971;SDS011;22052;0.000;0.000;2023-02-27T06:32:01;8.93;;;2.60;;
35971;SDS011;22052;0.000;0.000;2023-02-27T06:34:27;9.27;;;2.65;;
35971;SDS011;22052;0.000;0.000;2023-02-27T06:36:53;8.07;;;2.60;;
35971;SDS011;22052;0.000;0.000;2023-02-27T06:39:19;8.65;;;2.00;;
35971;SDS011;22052;0.000;0.000;2023-02-27T06:41:47;4.65;;;2.40;;
35971;SDS011;22052;0.000;0.000;2023-02-27T06:44:13;8.32;;;2.38;;
35971;SDS011;22052;0.000;0.000;2023-02-27T06:46:39;7.40;;;2.78;;
35971;SDS011;22052;0.000;0.000;2023-02-27T06:49:06;9.32;;;2.53;;
35971;SDS011;22052;0.000;0.000;2023-02-27T06:51:32;4.97;;;2.45;;
35971;SDS011;22052;0.000;0.000;2023-02-27T06:53:58;5.72;;;2.20;;
35971;SDS011;22052;0.000;0.000;2023-02-27T06:56:25;8.77;;;2.72;;
35971;SDS011;22052;0.000;0.000;2023-02-27T06:58:51;7.90;;;2.60;;
35971;SDS011;22052;0.000;0.000;2023-02-27T07:01:17;7.45;;;2.35;;
35971;SDS011;22052;0.000;0.000;2023-02-27T07:03:44;7.40;;;2.10;;
35971;SDS011;22052;0.000;0.000;2023-02-27T07:06:10;6.30;;;2.30;;
35971;SDS011;22052;0.000;0.000;2023-02-27T07:08:37;7.63;;;2.58;;
35971;SDS011;22052;0.000;0.000;2023-02-27T07:11:03;8.32;;;2.53;;
35971;SDS011;22052;0.000;0.000;2023-02-27T07:13:30;8.50;;;2.55;;
35971;SDS011;22052;0.000;0.000;2023-02-27T07:15:56;8.75;;;2.38;;
35971;SDS011;22052;0.000;0.000;2023-02-27T07:18:22;6.78;;;2.30;;
35971;SDS011;22052;0.000;0.000;2023-02-27T07:20:50;7.88;;;2.40;;
35971;SDS011;22052;0.000;0.000;2023-02-27T07:23:17;8.25;;;2.33;;
35971;SDS011;22052;0.000;0.000;2023-02-27T07:25:45;8.45;;;2.70;;
35971;SDS011;22052;0.000;0.000;2023-02-27T07:28:12;8.15;;;2.70;;
35971;SDS011;22052;0.000;0.000;2023-02-27T07:30:38;9.75;;;2.13;;
35971;SDS011;22052;0.000;0.000;2023-02-27T07:33:06;7.75;;;2.50;;
35971;SDS011;22052;0.000;0.000;2023-02-27T07:35:32;6.30;;;2.45;;
35971;SDS011;22052;0.000;0.000;2023-02-27T07:37:58;8.68;;;2.70;;
35971;SDS011;22052;0.000;0.000;2023-02-27T07:40:25;8.40;;;2.78;;
35971;SDS011;22052;0.000;0.000;2023-02-27T07:42:51;5.72;;;2.15;;
35971;SDS011;22052;0.000;0.000;2023-02-27T07:45:18;5.30;;;2.20;;
35971;SDS011;22052;0.000;0.000;2023-02-27T07:47:44;16.80;;;2.95;;
35971;SDS011;22052;0.000;0.000;2023-02-27T07:50:16;5.75;;;2.15;;
35971;SDS011;22052;0.000;0.000;2023-02-27T07:53:02;9.43;;;2.58;;
35971;SDS011;22052;0.000;0.000;2023-02-27T07:55:29;7.82;;;2.30;;
35971;SDS011;22052;0.000;0.000;2023-02-27T07:57:56;4.38;;;1.90;;
35971;SDS011;22052;0.000;0.000;2023-02-27T08:00:23;7.90;;;2.53;;
35971;SDS011;22052;0.000;0.000;2023-02-27T08:02:50;10.80;;;2.45;;
35971;SDS011;22052;0.000;0.000;2023-02-27T08:05:16;5.85;;;2.20;;
35971;SDS011;22052;0.000;0.000;2023-02-27T08:07:43;5.47;;;2.50;;
35971;SDS011;22052;0.000;0.000;2023-02-27T08:10:58;7.93;;;2.33;;
35971;SDS011;22052;0.000;0.000;2023-02-27T08:13:28;8.25;;;2.58;;
35971;SDS011;22052;0.000;0.000;2023-02-27T08:15:55;6.88;;;2.20;;
35971;SDS011;22052;0.000;0.000;2023-02-27T08:18:22;7.32;;;2.20;;
35971;SDS011;22052;0.000;0.000;2023-02-27T08:20:49;8.45;;;2.70;;
35971;SDS011;22052;0.000;0.000;2023-02-27T08:23:15;8.32;;;2.40;;
35971;SDS011;22052;0.000;0.000;2023-02-27T08:25:42;7.38;;;2.67;;
35971;SDS011;22052;0.000;0.000;2023-02-27T08:28:09;7.18;;;2.63;;
35971;SDS011;22052;0.000;0.000;2023-02-27T08:37:21;8.68;;;2.70;;
35971;SDS011;22052;0.000;0.000;2023-02-27T08:39:48;7.07;;;2.40;;
35971;SDS011;22052;0.000;0.000;2023-02-27T08:45:39;7.15;;;2.55;;
35971;SDS011;22052;0.000;0.000;2023-02-27T08:48:06;9.55;;;2.70;;
35971;SDS011;22052;0.000;0.000;2023-02-27T08:50:33;8.30;;;2.40;;
35971;SDS011;22052;0.000;0.000;2023-02-27T08:52:59;5.63;;;2.28;;
35971;SDS011;22052;0.000;0.000;2023-02-27T08:55:26;6.72;;;2.42;;
35971;SDS011;22052;0.000;0.000;2023-02-27T08:57:53;8.00;;;2.50;;
35971;SDS011;22052;0.000;0.000;2023-02-27T09:00:20;10.50;;;2.70;;
35971;SDS011;22052;0.000;0.000;2023-02-27T09:06:01;8.82;;;2.60;;
35971;SDS011;22052;0.000;0.000;2023-02-27T09:08:56;10.80;;;2.60;;
35971;SDS011;22052;0.000;0.000;2023-02-27T09:14:50;6.43;;;2.30;;
35971;SDS011;22052;0.000;0.000;2023-02-27T09:17:44;9.77;;;2.70;;
35971;SDS011;22052;0.000;0.000;2023-02-27T09:23:43;9.00;;;2.10;;
35971;SDS011;22052;0.000;0.000;2023-02-27T09:26:23;7.70;;;2.00;;
35971;SDS011;22052;0.000;0.000;2023-02-27T09:28:49;6.63;;;2.50;;
35971;SDS011;22052;0.000;0.000;2023-02-27T09:31:21;11.35;;;2.72;;
35971;SDS011;22052;0.000;0.000;2023-02-27T09:37:06;7.30;;;2.40;;
35971;SDS011;22052;0.000;0.000;2023-02-27T09:39:33;6.95;;;1.85;;
35971;SDS011;22052;0.000;0.000;2023-02-27T09:42:04;4.78;;;2.25;;
35971;SDS011;22052;0.000;0.000;2023-02-27T09:44:37;8.93;;;2.42;;
35971;SDS011;22052;0.000;0.000;2023-02-27T09:47:05;6.03;;;2.25;;
35971;SDS011;22052;0.000;0.000;2023-02-27T09:52:50;12.95;;;2.30;;
35971;SDS011;22052;0.000;0.000;2023-02-27T09:55:18;6.03;;;2.33;;
35971;SDS011;22052;0.000;0.000;2023-02-27T09:57:48;8.85;;;2.50;;
35971;SDS011;22052;0.000;0.000;2023-02-27T10:03:07;7.88;;;2.60;;
35971;SDS011;22052;0.000;0.000;2023-02-27T10:06:02;7.35;;;2.72;;
35971;SDS011;22052;0.000;0.000;2023-02-27T10:20:49;5.07;;;2.10;;
35971;SDS011;22052;0.000;0.000;2023-02-27T10:24:04;5.07;;;2.17;;
35971;SDS011;22052;0.000;0.000;2023-02-27T10:26:41;5.55;;;2.22;;
35971;SDS011;22052;0.000;0.000;2023-02-27T10:29:36;6.28;;;2.15;;
35971;SDS011;22052;0.000;0.000;2023-02-27T10:32:11;7.95;;;2.55;;
35971;SDS011;22052;0.000;0.000;2023-02-27T10:34:55;7.85;;;2.35;;
35971;SDS011;22052;0.000;0.000;2023-02-27T10:38:13;7.90;;;2.33;;
35971;SDS011;22052;0.000;0.000;2023-02-27T10:41:13;6.57;;;2.30;;
35971;SDS011;22052;0.000;0.000;2023-02-27T10:44:08;6.20;;;2.10;;
35971;SDS011;22052;0.000;0.000;2023-02-27T10:46:36;5.88;;;2.50;;
35971;SDS011;22052;0.000;0.000;2023-02-27T10:49:12;9.13;;;2.40;;
35971;SDS011;22052;0.000;0.000;2023-02-27T10:51:41;8.90;;;2.53;;
35971;SDS011;22052;0.000;0.000;2023-02-27T10:56:55;5.97;;;2.33;;
35971;SDS011;22052;0.000;0.000;2023-02-27T10:59:35;6.22;;;2.38;;
35971;SDS011;22052;0.000;0.000;2023-02-27T12:52:04;13.80;;;2.25;;
35971;SDS011;22052;0.000;0.000;2023-02-27T12:54:36;11.43;;;2.58;;
35971;SDS011;22052;0.000;0.000;2023-02-27T12:57:12;20.70;;;3.25;;
35971;SDS011;22052;0.000;0.000;2023-02-27T13:02:25;21.02;;;3.03;;
35971;SDS011;22052;0.000;0.000;2023-02-27T13:05:16;15.05;;;2.85;;
35971;SDS011;22052;0.000;0.000;2023-02-27T13:10:27;19.63;;;3.17;;
35971;SDS011;22052;0.000;0.000;2023-02-27T13:13:19;15.32;;;3.13;;
35971;SDS011;22052;0.000;0.000;2023-02-27T13:15:57;16.75;;;2.83;;
35971;SDS011;22052;0.000;0.000;2023-02-27T13:20:52;13.75;;;2.72;;
35971;SDS011;22052;0.000;0.000;2023-02-27T13:23:33;14.18;;;3.03;;
35971;SDS011;22052;0.000;0.000;2023-02-27T13:26:05;17.40;;;3.00;;
35971;SDS011;22052;0.000;0.000;2023-02-27T13:28:37;19.63;;;3.22;;
35971;SDS011;22052;0.000;0.000;2023-02-27T13:34:25;15.48;;;2.80;;
35971;SDS011;22052;0.000;0.000;2023-02-27T13:37:00;16.88;;;3.40;;
35971;SDS011;22052;0.000;0.000;2023-02-27T13:45:04;7.57;;;2.60;;
35971;SDS011;22052;0.000;0.000;2023-02-27T13:47:46;15.25;;;2.83;;
35971;SDS011;22052;0.000;0.000;2023-02-27T13:52:47;13.98;;;2.50;;
35971;SDS011;22052;0.000;0.000;2023-02-27T13:55:30;8.55;;;2.55;;
35971;SDS011;22052;0.000;0.000;2023-02-27T13:58:01;13.13;;;2.75;;
35971;SDS011;22052;0.000;0.000;2023-02-27T14:00:29;10.88;;;2.25;;
35971;SDS011;22052;0.000;0.000;2023-02-27T14:02:57;12.63;;;2.15;;
35971;SDS011;22052;0.000;0.000;2023-02-27T14:08:21;9.70;;;2.40;;
35971;SDS011;22052;0.000;0.000;2023-02-27T14:10:52;13.18;;;2.42;;
35971;SDS011;22052;0.000;0.000;2023-02-27T14:16:56;12.43;;;2.75;;
35971;SDS011;22052;0.000;0.000;2023-02-27T14:18:57;8.93;;;2.05;;
35971;SDS011;22052;0.000;0.000;2023-02-27T14:21:57;10.55;;;2.17;;
35971;SDS011;22052;0.000;0.000;2023-02-27T14:24:21;10.40;;;2.33;;
35971;SDS011;22052;0.000;0.000;2023-02-27T14:26:49;8.73;;;2.45;;
35971;SDS011;22052;0.000;0.000;2023-02-27T14:29:19;9.70;;;2.45;;
35971;SDS011;22052;0.000;0.000;2023-02-27T14:31:46;6.97;;;2.08;;
35971;SDS011;22052;0.000;0.000;2023-02-27T14:34:13;8.45;;;2.17;;
35971;SDS011;22052;0.000;0.000;2023-02-27T14:36:48;8.20;;;2.28;;
35971;SDS011;22052;0.000;0.000;2023-02-27T14:39:20;11.13;;;2.40;;
35971;SDS011;22052;0.000;0.000;2023-02-27T14:44:27;8.82;;;2.08;;
35971;SDS011;22052;0.000;0.000;2023-02-27T14:46:54;7.32;;;2.25;;
35971;SDS011;22052;0.000;0.000;2023-02-27T14:49:28;10.27;;;2.47;;
35971;SDS011;22052;0.000;0.000;2023-02-27T14:51:55;10.98;;;2.28;;
35971;SDS011;22052;0.000;0.000;2023-02-27T14:54:22;10.40;;;2.28;;
35971;SDS011;22052;0.000;0.000;2023-02-27T14:56:59;13.48;;;2.30;;
35971;SDS011;22052;0.000;0.000;2023-02-27T14:59:27;9.85;;;2.92;;
35971;SDS011;22052;0.000;0.000;2023-02-27T15:01:54;7.05;;;2.00;;
35971;SDS011;22052;0.000;0.000;2023-02-27T15:04:22;6.70;;;2.17;;
35971;SDS011;22052;0.000;0.000;2023-02-27T15:06:50;8.93;;;2.25;;
35971;SDS011;22052;0.000;0.000;2023-02-27T15:09:21;10.13;;;2.20;;
35971;SDS011;22052;0.000;0.000;2023-02-27T15:11:52;11.00;;;2.03;;
35971;SDS011;22052;0.000;0.000;2023-02-27T15:14:23;7.47;;;2.33;;
35971;SDS011;22052;0.000;0.000;2023-02-27T15:16:54;12.95;;;2.10;;
35971;SDS011;22052;0.000;0.000;2023-02-27T15:19:24;7.72;;;2.10;;
35971;SDS011;22052;0.000;0.000;2023-02-27T15:21:52;12.23;;;2.38;;
35971;SDS011;22052;0.000;0.000;2023-02-27T15:24:33;9.02;;;1.90;;
35971;SDS011;22052;0.000;0.000;2023-02-27T15:27:04;9.93;;;2.53;;
35971;SDS011;22052;0.000;0.000;2023-02-27T15:29:35;9.15;;;2.00;;
35971;SDS011;22052;0.000;0.000;2023-02-27T15:32:02;8.90;;;2.20;;
35971;SDS011;22052;0.000;0.000;2023-02-27T15:34:29;7.30;;;1.77;;
35971;SDS011;22052;0.000;0.000;2023-02-27T15:36:56;8.10;;;2.22;;
35971;SDS011;22052;0.000;0.000;2023-02-27T15:39:23;6.97;;;2.00;;
35971;SDS011;22052;0.000;0.000;2023-02-27T15:41:52;8.70;;;2.30;;
35971;SDS011;22052;0.000;0.000;2023-02-27T15:44:22;6.80;;;2.28;;
35971;SDS011;22052;0.000;0.000;2023-02-27T15:46:49;8.88;;;2.42;;
35971;SDS011;22052;0.000;0.000;2023-02-27T15:49:21;7.80;;;2.10;;
35971;SDS011;22052;0.000;0.000;2023-02-27T15:52:02;8.75;;;2.28;;
35971;SDS011;22052;0.000;0.000;2023-02-27T15:54:31;8.65;;;2.17;;
35971;SDS011;22052;0.000;0.000;2023-02-27T15:56:57;6.18;;;2.22;;
35971;SDS011;22052;0.000;0.000;2023-02-27T15:59:24;7.00;;;2.00;;
35971;SDS011;22052;0.000;0.000;2023-02-27T16:01:52;7.47;;;2.08;;
35971;SDS011;22052;0.000;0.000;2023-02-27T16:04:23;8.02;;;1.75;;
35971;SDS011;22052;0.000;0.000;2023-02-27T16:06:53;9.13;;;2.17;;
35971;SDS011;22052;0.000;0.000;2023-02-27T16:09:24;8.20;;;1.90;;
35971;SDS011;22052;0.000;0.000;2023-02-27T16:14:41;7.30;;;2.00;;
35971;SDS011;22052;0.000;0.000;2023-02-27T16:17:24;7.32;;;2.28;;
35971;SDS011;22052;0.000;0.000;2023-02-27T16:19:51;6.32;;;2.05;;
35971;SDS011;22052;0.000;0.000;2023-02-27T16:22:18;10.40;;;2.30;;
35971;SDS011;22052;0.000;0.000;2023-02-27T16:24:44;6.97;;;2.20;;
35971;SDS011;22052;0.000;0.000;2023-02-27T16:27:24;9.40;;;2.08;;
35971;SDS011;22052;0.000;0.000;2023-02-27T16:29:52;6.57;;;2.05;;
35971;SDS011;22052;0.000;0.000;2023-02-27T16:32:23;6.72;;;1.98;;
35971;SDS011;22052;0.000;0.000;2023-02-27T16:34:49;7.47;;;2.15;;
35971;SDS011;22052;0.000;0.000;2023-02-27T16:37:20;5.85;;;2.20;;
35971;SDS011;22052;0.000;0.000;2023-02-27T16:39:50;8.38;;;2.45;;
35971;SDS011;22052;0.000;0.000;2023-02-27T16:42:18;6.68;;;1.80;;
35971;SDS011;22052;0.000;0.000;2023-02-27T16:44:44;11.00;;;2.13;;
35971;SDS011;22052;0.000;0.000;2023-02-27T16:47:10;7.93;;;2.00;;
35971;SDS011;22052;0.000;0.000;2023-02-27T16:49:37;6.55;;;1.77;;
35971;SDS011;22052;0.000;0.000;2023-02-27T16:52:05;6.72;;;2.00;;
35971;SDS011;22052;0.000;0.000;2023-02-27T16:54:32;8.88;;;1.83;;
35971;SDS011;22052;0.000;0.000;2023-02-27T16:56:59;7.07;;;1.70;;
35971;SDS011;22052;0.000;0.000;2023-02-27T16:59:38;6.72;;;1.90;;
35971;SDS011;22052;0.000;0.000;2023-02-27T17:02:06;6.72;;;2.05;;
35971;SDS011;22052;0.000;0.000;2023-02-27T17:04:32;7.93;;;1.95;;
35971;SDS011;22052;0.000;0.000;2023-02-27T17:07:00;5.22;;;1.92;;
35971;SDS011;22052;0.000;0.000;2023-02-27T17:09:26;7.10;;;1.90;;
35971;SDS011;22052;0.000;0.000;2023-02-27T17:11:53;7.60;;;1.90;;
35971;SDS011;22052;0.000;0.000;2023-02-27T17:14:20;5.13;;;1.80;;
35971;SDS011;22052;0.000;0.000;2023-02-27T17:16:47;8.07;;;1.98;;
35971;SDS011;22052;0.000;0.000;2023-02-27T17:19:13;7.55;;;2.22;;
35971;SDS011;22052;0.000;0.000;2023-02-27T17:21:39;5.50;;;2.10;;
35971;SDS011;22052;0.000;0.000;2023-02-27T17:24:06;7.22;;;1.90;;
35971;SDS011;22052;0.000;0.000;2023-02-27T17:26:32;6.93;;;2.00;;
35971;SDS011;22052;0.000;0.000;2023-02-27T17:28:58;8.82;;;2.40;;
35971;SDS011;22052;0.000;0.000;2023-02-27T17:31:26;7.22;;;1.95;;
35971;SDS011;22052;0.000;0.000;2023-02-27T17:33:53;8.15;;;2.10;;
35971;SDS011;22052;0.000;0.000;2023-02-27T17:36:19;6.13;;;1.90;;
35971;SDS011;22052;0.000;0.000;2023-02-27T17:38:46;9.15;;;2.45;;
35971;SDS011;22052;0.000;0.000;2023-02-27T17:41:13;6.30;;;1.95;;
35971;SDS011;22052;0.000;0.000;2023-02-27T17:43:40;11.15;;;2.33;;
35971;SDS011;22052;0.000;0.000;2023-02-27T17:46:07;6.03;;;2.22;;
35971;SDS011;22052;0.000;0.000;2023-02-27T17:48:34;6.63;;;1.83;;
35971;SDS011;22052;0.000;0.000;2023-02-27T17:51:04;5.50;;;1.83;;
35971;SDS011;22052;0.000;0.000;2023-02-27T17:53:30;7.43;;;1.73;;
35971;SDS011;22052;0.000;0.000;2023-02-27T17:55:56;8.32;;;2.10;;
35971;SDS011;22052;0.000;0.000;2023-02-27T17:58:22;10.93;;;2.30;;
35971;SDS011;22052;0.000;0.000;2023-02-27T18:00:48;7.25;;;1.80;;
35971;SDS011;22052;0.000;0.000;2023-02-27T18:03:14;7.07;;;1.80;;
35971;SDS011;22052;0.000;0.000;2023-02-27T18:05:46;6.18;;;2.40;;
35971;SDS011;22052;0.000;0.000;2023-02-27T18:08:12;10.50;;;2.22;;
35971;SDS011;22052;0.000;0.000;2023-02-27T18:10:38;10.68;;;2.03;;
35971;SDS011;22052;0.000;0.000;2023-02-27T18:13:05;10.70;;;2.13;;
35971;SDS011;22052;0.000;0.000;2023-02-27T18:15:32;8.88;;;2.00;;
35971;SDS011;22052;0.000;0.000;2023-02-27T18:17:58;6.95;;;2.30;;
35971;SDS011;22052;0.000;0.000;2023-02-27T18:20:24;8.68;;;2.17;;
35971;SDS011;22052;0.000;0.000;2023-02-27T18:22:50;6.78;;;1.95;;
35971;SDS011;22052;0.000;0.000;2023-02-27T18:25:16;7.25;;;1.85;;
35971;SDS011;22052;0.000;0.000;2023-02-27T18:27:44;8.80;;;2.10;;
35971;SDS011;22052;0.000;0.000;2023-02-27T18:30:10;13.27;;;2.25;;
35971;SDS011;22052;0.000;0.000;2023-02-27T18:32:37;5.90;;;2.33;;
35971;SDS011;22052;0.000;0.000;2023-02-27T18:35:03;8.95;;;1.80;;
35971;SDS011;22052;0.000;0.000;2023-02-27T18:37:29;5.53;;;1.92;;
35971;SDS011;22052;0.000;0.000;2023-02-27T18:39:56;7.13;;;2.33;;
35971;SDS011;22052;0.000;0.000;2023-02-27T18:42:22;9.20;;;2.25;;
35971;SDS011;22052;0.000;0.000;2023-02-27T18:44:48;9.10;;;2.30;;
35971;SDS011;22052;0.000;0.000;2023-02-27T18:47:14;7.95;;;1.92;;
35971;SDS011;22052;0.000;0.000;2023-02-27T18:49:40;9.68;;;2.20;;
35971;SDS011;22052;0.000;0.000;2023-02-27T18:52:07;7.60;;;2.22;;
35971;SDS011;22052;0.000;0.000;2023-02-27T18:54:33;7.28;;;2.13;;
35971;SDS011;22052;0.000;0.000;2023-02-27T18:57:00;6.18;;;1.88;;
35971;SDS011;22052;0.000;0.000;2023-02-27T18:59:26;11.73;;;2.08;;
35971;SDS011;22052;0.000;0.000;2023-02-27T19:01:54;6.78;;;2.25;;
35971;SDS011;22052;0.000;0.000;2023-02-27T19:04:21;9.57;;;2.03;;
35971;SDS011;22052;0.000;0.000;2023-02-27T19:06:49;10.23;;;1.80;;
35971;SDS011;22052;0.000;0.000;2023-02-27T19:09:15;5.63;;;1.75;;
35971;SDS011;22052;0.000;0.000;2023-02-27T19:11:43;11.27;;;1.73;;
35971;SDS011;22052;0.000;0.000;2023-02-27T19:14:10;7.32;;;2.38;;
35971;SDS011;22052;0.000;0.000;2023-02-27T19:16:37;8.23;;;2.20;;
35971;SDS011;22052;0.000;0.000;2023-02-27T19:19:04;6.43;;;1.90;;
35971;SDS011;22052;0.000;0.000;2023-02-27T19:21:30;7.82;;;2.17;;